Terminal Aerodrome Forecast
Issued by NWS

Home | Current Version | Previous Version | Text Only | Print | Product List | Glossary Off
Versions: 1 2 3 4 5 6 7 8 9 10 11 12 13 14 15 16 17 18 19 20 21 22 23 24 25 26 27 28 29

000
FTUS43 KBIS 201123
TAFMOT
TAF
KMOT 201123Z 2012/2112 26009KT P6SM -SHRA OVC015
     FM201300 29009KT P6SM VCSH OVC008
     FM201600 33012G20KT P6SM OVC008
     FM201800 35013KT P6SM BKN015
     FM202100 35012KT P6SM SCT020
     FM210200 05005KT P6SM FEW250=

USA.gov is the U.S. government's official web portal to all federal, state and local government web resources and services.